Time;durP1;ratioP1;P1;durP2;ratioP2;P2;SDS_P1;SDS_P2;PMS_P1;PMS_P2;Temp;Humidity;BMP_temperature;BMP_pressure;BME280_temperature;BME280_humidity;BME280_pressure;Samples;Min_cycle;Max_cycle;Signal;HPM_P1;HPM_P2
2022/08/13 00:00:54;;;;;;;3.5;3.15;;;;;;;14.04;57.93555;95306.96;;;;
2022/08/13 00:01:56;;;;;;;4.3;3.25;;;;;;;13.86;58.35742;95306.3;;;;
2022/08/13 00:02:59;;;;;;;4.3;3.25;;;;;;;13.86;58.35742;95306.3;;;;
2022/08/13 00:04:01;;;;;;;4.3;3.25;;;;;;;13.86;58.35742;95306.3;;;;
2022/08/13 00:05:05;;;;;;;4.3;3.25;;;;;;;13.86;58.35742;95306.3;;;;
2022/08/13 00:06:08;;;;;;;4.3;3.25;;;;;;;13.86;58.35742;95306.3;;;;
2022/08/13 00:07:09;;;;;;;4.3;3.25;;;;;;;13.86;58.35742;95306.3;;;;
2022/08/13 00:08:09;;;;;;;4.3;3.25;;;;;;;13.86;58.35742;95306.3;;;;
2022/08/13 00:09:10;;;;;;;4.3;3.25;;;;;;;13.86;58.35742;95306.3;;;;
2022/08/13 00:10:19;;;;;;;4.3;3.25;;;;;;;13.86;58.35742;95306.3;;;;
2022/08/13 00:12:56;;;;;;;4.3;3.25;;;;;;;13.86;58.35742;95306.3;;;;
2022/08/13 00:13:57;;;;;;;4.25;3.5;;;;;;;13.72;58.70898;95307.54;;;;
2022/08/13 00:14:58;;;;;;;4.25;3.5;;;;;;;13.72;58.70898;95307.54;;;;
2022/08/13 00:16:01;;;;;;;4.25;3.5;;;;;;;13.72;58.70898;95307.54;;;;
2022/08/13 00:17:02;;;;;;;4.25;3.5;;;;;;;13.72;58.70898;95307.54;;;;
2022/08/13 00:18:05;;;;;;;4.25;3.5;;;;;;;13.72;58.70898;95307.54;;;;
2022/08/13 00:19:09;;;;;;;4.25;3.5;;;;;;;13.72;58.70898;95307.54;;;;
2022/08/13 00:20:09;;;;;;;4.25;3.5;;;;;;;13.72;58.70898;95307.54;;;;
2022/08/13 00:21:12;;;;;;;4.25;3.5;;;;;;;13.72;58.70898;95307.54;;;;
2022/08/13 00:22:12;;;;;;;4.25;3.5;;;;;;;13.72;58.70898;95307.54;;;;
2022/08/13 00:23:13;;;;;;;4.95;3.9;;;;;;;13.5;59.02734;95294.53;;;;
2022/08/13 00:24:17;;;;;;;4.95;3.9;;;;;;;13.5;59.02734;95294.53;;;;
2022/08/13 00:25:18;;;;;;;4.95;3.9;;;;;;;13.5;59.02734;95294.53;;;;
2022/08/13 00:26:18;;;;;;;4.95;3.9;;;;;;;13.5;59.02734;95294.53;;;;
2022/08/13 00:27:21;;;;;;;4.95;3.9;;;;;;;13.5;59.02734;95294.53;;;;
2022/08/13 00:28:24;;;;;;;4.95;3.9;;;;;;;13.5;59.02734;95294.53;;;;
2022/08/13 00:29:27;;;;;;;4.95;3.9;;;;;;;13.5;59.02734;95294.53;;;;
2022/08/13 00:30:31;;;;;;;4.95;3.9;;;;;;;13.5;59.02734;95294.53;;;;
2022/08/13 00:31:35;;;;;;;4.95;3.9;;;;;;;13.5;59.02734;95294.53;;;;
2022/08/13 00:32:37;;;;;;;4.95;3.9;;;;;;;13.5;59.02734;95294.53;;;;
2022/08/13 00:33:38;;;;;;;3.85;3.55;;;;;;;13.36;59.45508;95305.88;;;;
2022/08/13 00:34:39;;;;;;;3.85;3.55;;;;;;;13.36;59.45508;95305.88;;;;
2022/08/13 00:35:41;;;;;;;3.85;3.55;;;;;;;13.36;59.45508;95305.88;;;;
2022/08/13 00:36:43;;;;;;;3.85;3.55;;;;;;;13.36;59.45508;95305.88;;;;
2022/08/13 00:37:44;;;;;;;3.85;3.55;;;;;;;13.36;59.45508;95305.88;;;;
2022/08/13 00:38:45;;;;;;;3.85;3.55;;;;;;;13.36;59.45508;95305.88;;;;
2022/08/13 00:39:46;;;;;;;3.85;3.55;;;;;;;13.36;59.45508;95305.88;;;;
2022/08/13 00:40:46;;;;;;;3.85;3.55;;;;;;;13.36;59.45508;95305.88;;;;
2022/08/13 00:41:50;;;;;;;3.85;3.55;;;;;;;13.36;59.45508;95305.88;;;;
2022/08/13 00:42:51;;;;;;;3.85;3.55;;;;;;;13.36;59.45508;95305.88;;;;
2022/08/13 00:43:52;;;;;;;3.7;3.400001;;;;;;;13.2;59.72754;95308.69;;;;
2022/08/13 00:44:52;;;;;;;3.7;3.400001;;;;;;;13.2;59.72754;95308.69;;;;
2022/08/13 00:45:54;;;;;;;3.7;3.400001;;;;;;;13.2;59.72754;95308.69;;;;
2022/08/13 00:48:41;;;;;;;3.7;3.400001;;;;;;;13.2;59.72754;95308.69;;;;
2022/08/13 00:49:43;;;;;;;3.7;3.400001;;;;;;;13.2;59.72754;95308.69;;;;
2022/08/13 00:50:44;;;;;;;3.7;3.400001;;;;;;;13.2;59.72754;95308.69;;;;
2022/08/13 00:51:45;;;;;;;3.7;3.400001;;;;;;;13.2;59.72754;95308.69;;;;
2022/08/13 00:52:48;;;;;;;3.7;3.400001;;;;;;;13.2;59.72754;95308.69;;;;
2022/08/13 00:53:49;;;;;;;3.7;3.400001;;;;;;;13.2;59.72754;95308.69;;;;
2022/08/13 00:54:51;;;;;;;4.1;3.7;;;;;;;13.13;59.9668;95292.95;;;;
2022/08/13 00:55:51;;;;;;;4.1;3.7;;;;;;;13.13;59.9668;95292.95;;;;
2022/08/13 00:56:57;;;;;;;4.1;3.7;;;;;;;13.13;59.9668;95292.95;;;;
2022/08/13 00:57:58;;;;;;;4.1;3.7;;;;;;;13.13;59.9668;95292.95;;;;
2022/08/13 00:59:00;;;;;;;4.1;3.7;;;;;;;13.13;59.9668;95292.95;;;;
2022/08/13 01:00:03;;;;;;;4.1;3.7;;;;;;;13.13;59.9668;95292.95;;;;
2022/08/13 01:01:06;;;;;;;4.1;3.7;;;;;;;13.13;59.9668;95292.95;;;;
2022/08/13 01:02:07;;;;;;;4.1;3.7;;;;;;;13.13;59.9668;95292.95;;;;
2022/08/13 01:03:08;;;;;;;4.1;3.7;;;;;;;13.13;59.9668;95292.95;;;;
2022/08/13 01:04:09;;;;;;;4.1;3.7;;;;;;;13.13;59.9668;95292.95;;;;
2022/08/13 01:05:09;;;;;;;5.149999;3.95;;;;;;;12.95;60.35449;95296.17;;;;
2022/08/13 01:06:11;;;;;;;5.149999;3.95;;;;;;;12.95;60.35449;95296.17;;;;
2022/08/13 01:07:11;;;;;;;5.149999;3.95;;;;;;;12.95;60.35449;95296.17;;;;
2022/08/13 01:08:16;;;;;;;5.149999;3.95;;;;;;;12.95;60.35449;95296.17;;;;
2022/08/13 01:09:18;;;;;;;5.149999;3.95;;;;;;;12.95;60.35449;95296.17;;;;
2022/08/13 01:10:20;;;;;;;5.149999;3.95;;;;;;;12.95;60.35449;95296.17;;;;
2022/08/13 01:11:20;;;;;;;5.149999;3.95;;;;;;;12.95;60.35449;95296.17;;;;
2022/08/13 01:12:23;;;;;;;5.149999;3.95;;;;;;;12.95;60.35449;95296.17;;;;
2022/08/13 01:13:26;;;;;;;5.149999;3.95;;;;;;;12.95;60.35449;95296.17;;;;
2022/08/13 01:14:32;;;;;;;5.149999;3.95;;;;;;;12.95;60.35449;95296.17;;;;
2022/08/13 01:15:32;;;;;;;5.149999;3.95;;;;;;;12.95;60.35449;95296.17;;;;
2022/08/13 01:16:36;;;;;;;4.349999;3.95;;;;;;;12.85;60.65625;95289.26;;;;
2022/08/13 01:17:37;;;;;;;4.349999;3.95;;;;;;;12.85;60.65625;95289.26;;;;
2022/08/13 01:18:40;;;;;;;4.349999;3.95;;;;;;;12.85;60.65625;95289.26;;;;
2022/08/13 01:19:44;;;;;;;4.349999;3.95;;;;;;;12.85;60.65625;95289.26;;;;
2022/08/13 01:20:45;;;;;;;4.349999;3.95;;;;;;;12.85;60.65625;95289.26;;;;
2022/08/13 01:21:48;;;;;;;4.349999;3.95;;;;;;;12.85;60.65625;95289.26;;;;
2022/08/13 01:22:52;;;;;;;4.349999;3.95;;;;;;;12.85;60.65625;95289.26;;;;
2022/08/13 01:23:53;;;;;;;4.349999;3.95;;;;;;;12.85;60.65625;95289.26;;;;
2022/08/13 01:24:55;;;;;;;4.349999;3.95;;;;;;;12.85;60.65625;95289.26;;;;
2022/08/13 01:25:56;;;;;;;4.349999;3.95;;;;;;;12.85;60.65625;95289.26;;;;
2022/08/13 01:26:57;;;;;;;4.75;4.05;;;;;;;12.66;61.03223;95288.9;;;;
2022/08/13 01:27:59;;;;;;;4.75;4.05;;;;;;;12.66;61.03223;95288.9;;;;
2022/08/13 01:29:04;;;;;;;4.75;4.05;;;;;;;12.66;61.03223;95288.9;;;;
2022/08/13 01:30:05;;;;;;;4.75;4.05;;;;;;;12.66;61.03223;95288.9;;;;
2022/08/13 01:31:10;;;;;;;4.75;4.05;;;;;;;12.66;61.03223;95288.9;;;;
2022/08/13 01:32:15;;;;;;;4.75;4.05;;;;;;;12.66;61.03223;95288.9;;;;
2022/08/13 01:33:17;;;;;;;4.75;4.05;;;;;;;12.66;61.03223;95288.9;;;;
2022/08/13 01:34:19;;;;;;;4.75;4.05;;;;;;;12.66;61.03223;95288.9;;;;
2022/08/13 01:35:20;;;;;;;4.75;4.05;;;;;;;12.66;61.03223;95288.9;;;;
2022/08/13 01:36:23;;;;;;;4.75;4.05;;;;;;;12.66;61.03223;95288.9;;;;
2022/08/13 01:37:24;;;;;;;5.050001;4.35;;;;;;;12.57;61.36719;95278.83;;;;
2022/08/13 01:38:26;;;;;;;5.050001;4.35;;;;;;;12.57;61.36719;95278.83;;;;
2022/08/13 01:39:27;;;;;;;5.050001;4.35;;;;;;;12.57;61.36719;95278.83;;;;
2022/08/13 01:40:30;;;;;;;5.050001;4.35;;;;;;;12.57;61.36719;95278.83;;;;
2022/08/13 01:41:32;;;;;;;5.050001;4.35;;;;;;;12.57;61.36719;95278.83;;;;
2022/08/13 01:42:34;;;;;;;5.050001;4.35;;;;;;;12.57;61.36719;95278.83;;;;
2022/08/13 01:43:38;;;;;;;5.050001;4.35;;;;;;;12.57;61.36719;95278.83;;;;
2022/08/13 01:44:40;;;;;;;5.050001;4.35;;;;;;;12.57;61.36719;95278.83;;;;
2022/08/13 01:45:41;;;;;;;5.050001;4.35;;;;;;;12.57;61.36719;95278.83;;;;
2022/08/13 01:51:56;;;;;;;5.05;4.55;;;;;;;12.43;61.74902;95284.43;;;;
2022/08/13 01:53:00;;;;;;;5.05;4.55;;;;;;;12.43;61.74902;95284.43;;;;
2022/08/13 01:54:04;;;;;;;5.05;4.55;;;;;;;12.43;61.74902;95284.43;;;;
2022/08/13 01:55:04;;;;;;;5.05;4.55;;;;;;;12.43;61.74902;95284.43;;;;
2022/08/13 01:56:07;;;;;;;5.05;4.55;;;;;;;12.43;61.74902;95284.43;;;;
2022/08/13 01:57:07;;;;;;;5.05;4.55;;;;;;;12.43;61.74902;95284.43;;;;
2022/08/13 01:58:09;;;;;;;5.05;4.55;;;;;;;12.43;61.74902;95284.43;;;;
2022/08/13 01:59:11;;;;;;;5.900001;4.55;;;;;;;12.38;62.0459;95274.47;;;;
2022/08/13 02:00:13;;;;;;;5.900001;4.55;;;;;;;12.38;62.0459;95274.47;;;;
2022/08/13 02:01:17;;;;;;;5.900001;4.55;;;;;;;12.38;62.0459;95274.47;;;;
2022/08/13 02:02:18;;;;;;;5.900001;4.55;;;;;;;12.38;62.0459;95274.47;;;;
2022/08/13 02:03:19;;;;;;;5.900001;4.55;;;;;;;12.38;62.0459;95274.47;;;;
2022/08/13 02:04:21;;;;;;;5.900001;4.55;;;;;;;12.38;62.0459;95274.47;;;;
2022/08/13 02:05:23;;;;;;;5.900001;4.55;;;;;;;12.38;62.0459;95274.47;;;;
2022/08/13 02:06:23;;;;;;;5.900001;4.55;;;;;;;12.38;62.0459;95274.47;;;;
2022/08/13 02:07:25;;;;;;;5.900001;4.55;;;;;;;12.38;62.0459;95274.47;;;;
2022/08/13 02:08:26;;;;;;;5.900001;4.55;;;;;;;12.38;62.0459;95274.47;;;;
2022/08/13 02:09:27;;;;;;;5.600001;5.05;;;;;;;12.29;62.36816;95279.92;;;;
2022/08/13 02:10:28;;;;;;;5.600001;5.05;;;;;;;12.29;62.36816;95279.92;;;;
2022/08/13 02:11:29;;;;;;;5.600001;5.05;;;;;;;12.29;62.36816;95279.92;;;;
2022/08/13 02:12:35;;;;;;;5.600001;5.05;;;;;;;12.29;62.36816;95279.92;;;;
2022/08/13 02:13:39;;;;;;;5.600001;5.05;;;;;;;12.29;62.36816;95279.92;;;;
2022/08/13 02:14:42;;;;;;;5.600001;5.05;;;;;;;12.29;62.36816;95279.92;;;;
2022/08/13 02:15:43;;;;;;;5.600001;5.05;;;;;;;12.29;62.36816;95279.92;;;;
2022/08/13 02:16:45;;;;;;;5.600001;5.05;;;;;;;12.29;62.36816;95279.92;;;;
2022/08/13 02:17:46;;;;;;;5.600001;5.05;;;;;;;12.29;62.36816;95279.92;;;;
2022/08/13 02:18:52;;;;;;;5.600001;5.05;;;;;;;12.29;62.36816;95279.92;;;;
2022/08/13 02:19:53;;;;;;;5.7;5.099999;;;;;;;12.3;62.63965;95274.91;;;;
2022/08/13 02:20:55;;;;;;;5.7;5.099999;;;;;;;12.3;62.63965;95274.91;;;;
2022/08/13 02:21:57;;;;;;;5.7;5.099999;;;;;;;12.3;62.63965;95274.91;;;;
2022/08/13 02:22:58;;;;;;;5.7;5.099999;;;;;;;12.3;62.63965;95274.91;;;;
2022/08/13 02:23:59;;;;;;;5.7;5.099999;;;;;;;12.3;62.63965;95274.91;;;;
2022/08/13 02:25:01;;;;;;;5.7;5.099999;;;;;;;12.3;62.63965;95274.91;;;;
2022/08/13 02:26:05;;;;;;;5.7;5.099999;;;;;;;12.3;62.63965;95274.91;;;;
2022/08/13 02:27:06;;;;;;;5.7;5.099999;;;;;;;12.3;62.63965;95274.91;;;;
2022/08/13 02:28:09;;;;;;;5.7;5.099999;;;;;;;12.3;62.63965;95274.91;;;;
2022/08/13 02:29:09;;;;;;;5.7;5.099999;;;;;;;12.3;62.63965;95274.91;;;;
2022/08/13 02:30:11;;;;;;;5.7;5.099999;;;;;;;12.3;62.63965;95274.91;;;;
2022/08/13 02:31:12;;;;;;;5.100001;4.600001;;;;;;;12.24;63.0127;95281.89;;;;
2022/08/13 02:32:13;;;;;;;5.100001;4.600001;;;;;;;12.24;63.0127;95281.89;;;;
2022/08/13 02:33:14;;;;;;;5.100001;4.600001;;;;;;;12.24;63.0127;95281.89;;;;
2022/08/13 02:34:15;;;;;;;5.100001;4.600001;;;;;;;12.24;63.0127;95281.89;;;;
2022/08/13 02:35:18;;;;;;;5.100001;4.600001;;;;;;;12.24;63.0127;95281.89;;;;
2022/08/13 02:36:21;;;;;;;5.100001;4.600001;;;;;;;12.24;63.0127;95281.89;;;;
2022/08/13 02:37:23;;;;;;;5.100001;4.600001;;;;;;;12.24;63.0127;95281.89;;;;
2022/08/13 02:38:23;;;;;;;5.100001;4.600001;;;;;;;12.24;63.0127;95281.89;;;;
2022/08/13 02:39:24;;;;;;;5.100001;4.600001;;;;;;;12.24;63.0127;95281.89;;;;
2022/08/13 02:45:36;;;;;;;6.149999;5.1;;;;;;;12.23;63.20703;95270.09;;;;
2022/08/13 02:46:37;;;;;;;6.149999;5.1;;;;;;;12.23;63.20703;95270.09;;;;
2022/08/13 02:47:41;;;;;;;6.149999;5.1;;;;;;;12.23;63.20703;95270.09;;;;
2022/08/13 02:48:42;;;;;;;6.149999;5.1;;;;;;;12.23;63.20703;95270.09;;;;
2022/08/13 02:49:43;;;;;;;6.149999;5.1;;;;;;;12.23;63.20703;95270.09;;;;
2022/08/13 02:50:45;;;;;;;6.149999;5.1;;;;;;;12.23;63.20703;95270.09;;;;
2022/08/13 02:51:47;;;;;;;6.149999;5.1;;;;;;;12.23;63.20703;95270.09;;;;
2022/08/13 02:52:48;;;;;;;5.100001;4.699999;;;;;;;12.15;63.59473;95278.34;;;;
2022/08/13 02:53:49;;;;;;;5.100001;4.699999;;;;;;;12.15;63.59473;95278.34;;;;
2022/08/13 02:54:50;;;;;;;5.100001;4.699999;;;;;;;12.15;63.59473;95278.34;;;;
2022/08/13 02:55:51;;;;;;;5.100001;4.699999;;;;;;;12.15;63.59473;95278.34;;;;
2022/08/13 02:56:52;;;;;;;5.100001;4.699999;;;;;;;12.15;63.59473;95278.34;;;;
2022/08/13 02:57:52;;;;;;;5.100001;4.699999;;;;;;;12.15;63.59473;95278.34;;;;
2022/08/13 02:58:53;;;;;;;5.100001;4.699999;;;;;;;12.15;63.59473;95278.34;;;;
2022/08/13 02:59:54;;;;;;;5.100001;4.699999;;;;;;;12.15;63.59473;95278.34;;;;
2022/08/13 03:00:54;;;;;;;5.100001;4.699999;;;;;;;12.15;63.59473;95278.34;;;;
2022/08/13 03:01:55;;;;;;;5.100001;4.699999;;;;;;;12.15;63.59473;95278.34;;;;
2022/08/13 03:02:58;;;;;;;6.099999;4.550001;;;;;;;12.14;63.83105;95274.18;;;;
2022/08/13 03:03:58;;;;;;;6.099999;4.550001;;;;;;;12.14;63.83105;95274.18;;;;
2022/08/13 03:04:59;;;;;;;6.099999;4.550001;;;;;;;12.14;63.83105;95274.18;;;;
2022/08/13 03:06:00;;;;;;;6.099999;4.550001;;;;;;;12.14;63.83105;95274.18;;;;
2022/08/13 03:07:00;;;;;;;6.099999;4.550001;;;;;;;12.14;63.83105;95274.18;;;;
2022/08/13 03:08:03;;;;;;;6.099999;4.550001;;;;;;;12.14;63.83105;95274.18;;;;
2022/08/13 03:09:05;;;;;;;6.099999;4.550001;;;;;;;12.14;63.83105;95274.18;;;;
2022/08/13 03:10:05;;;;;;;6.099999;4.550001;;;;;;;12.14;63.83105;95274.18;;;;
2022/08/13 03:11:08;;;;;;;6.099999;4.550001;;;;;;;12.14;63.83105;95274.18;;;;
2022/08/13 03:12:10;;;;;;;6.099999;4.550001;;;;;;;12.14;63.83105;95274.18;;;;
2022/08/13 03:13:15;;;;;;;5.15;4.65;;;;;;;12.04;64.08789;95273.88;;;;
2022/08/13 03:14:22;;;;;;;5.15;4.65;;;;;;;12.04;64.08789;95273.88;;;;
2022/08/13 03:15:24;;;;;;;5.15;4.65;;;;;;;12.04;64.08789;95273.88;;;;
2022/08/13 03:16:26;;;;;;;5.15;4.65;;;;;;;12.04;64.08789;95273.88;;;;
2022/08/13 03:17:27;;;;;;;5.15;4.65;;;;;;;12.04;64.08789;95273.88;;;;
2022/08/13 03:18:28;;;;;;;5.15;4.65;;;;;;;12.04;64.08789;95273.88;;;;
2022/08/13 03:19:31;;;;;;;5.15;4.65;;;;;;;12.04;64.08789;95273.88;;;;
2022/08/13 03:20:32;;;;;;;5.15;4.65;;;;;;;12.04;64.08789;95273.88;;;;
2022/08/13 03:21:32;;;;;;;5.15;4.65;;;;;;;12.04;64.08789;95273.88;;;;
2022/08/13 03:22:40;;;;;;;5.15;4.65;;;;;;;12.04;64.08789;95273.88;;;;
2022/08/13 03:23:51;;;;;;;5.149999;4.699999;;;;;;;11.98;64.37207;95265.37;;;;
2022/08/13 03:24:52;;;;;;;5.149999;4.699999;;;;;;;11.98;64.37207;95265.37;;;;
2022/08/13 03:25:52;;;;;;;5.149999;4.699999;;;;;;;11.98;64.37207;95265.37;;;;
2022/08/13 03:26:53;;;;;;;5.149999;4.699999;;;;;;;11.98;64.37207;95265.37;;;;
2022/08/13 03:27:53;;;;;;;5.149999;4.699999;;;;;;;11.98;64.37207;95265.37;;;;
2022/08/13 03:28:54;;;;;;;5.149999;4.699999;;;;;;;11.98;64.37207;95265.37;;;;
2022/08/13 03:29:55;;;;;;;5.149999;4.699999;;;;;;;11.98;64.37207;95265.37;;;;
2022/08/13 03:30:55;;;;;;;5.149999;4.699999;;;;;;;11.98;64.37207;95265.37;;;;
2022/08/13 03:31:56;;;;;;;5.149999;4.699999;;;;;;;11.98;64.37207;95265.37;;;;
2022/08/13 03:32:56;;;;;;;5.149999;4.699999;;;;;;;11.98;64.37207;95265.37;;;;
2022/08/13 03:33:58;;;;;;;5.149999;4.699999;;;;;;;11.98;64.37207;95265.37;;;;
2022/08/13 03:34:59;;;;;;;5;4.5;;;;;;;11.84;64.58789;95268.79;;;;
2022/08/13 03:35:59;;;;;;;5;4.5;;;;;;;11.84;64.58789;95268.79;;;;
2022/08/13 03:37:00;;;;;;;5;4.5;;;;;;;11.84;64.58789;95268.79;;;;
2022/08/13 03:38:01;;;;;;;5;4.5;;;;;;;11.84;64.58789;95268.79;;;;
2022/08/13 03:39:04;;;;;;;5;4.5;;;;;;;11.84;64.58789;95268.79;;;;
2022/08/13 03:40:05;;;;;;;5;4.5;;;;;;;11.84;64.58789;95268.79;;;;
2022/08/13 03:41:11;;;;;;;5;4.5;;;;;;;11.84;64.58789;95268.79;;;;
2022/08/13 03:42:11;;;;;;;5;4.5;;;;;;;11.84;64.58789;95268.79;;;;
2022/08/13 03:43:12;;;;;;;5;4.5;;;;;;;11.84;64.58789;95268.79;;;;
2022/08/13 03:44:13;;;;;;;5;4.5;;;;;;;11.84;64.58789;95268.79;;;;
2022/08/13 03:45:15;;;;;;;4.65;4.15;;;;;;;11.76;64.79297;95279.27;;;;
2022/08/13 03:46:17;;;;;;;4.65;4.15;;;;;;;11.76;64.79297;95279.27;;;;
2022/08/13 03:47:20;;;;;;;4.65;4.15;;;;;;;11.76;64.79297;95279.27;;;;
2022/08/13 03:48:21;;;;;;;4.65;4.15;;;;;;;11.76;64.79297;95279.27;;;;
2022/08/13 03:49:22;;;;;;;4.65;4.15;;;;;;;11.76;64.79297;95279.27;;;;
2022/08/13 03:50:22;;;;;;;4.65;4.15;;;;;;;11.76;64.79297;95279.27;;;;
2022/08/13 03:51:23;;;;;;;4.65;4.15;;;;;;;11.76;64.79297;95279.27;;;;
2022/08/13 03:52:24;;;;;;;4.65;4.15;;;;;;;11.76;64.79297;95279.27;;;;
2022/08/13 03:53:25;;;;;;;4.65;4.15;;;;;;;11.76;64.79297;95279.27;;;;
2022/08/13 03:54:26;;;;;;;4.65;4.15;;;;;;;11.76;64.79297;95279.27;;;;
2022/08/13 03:55:26;;;;;;;4.65;4.15;;;;;;;11.76;64.79297;95279.27;;;;
2022/08/13 03:56:27;;;;;;;5.1;4.65;;;;;;;11.62;65.03223;95279.49;;;;
2022/08/13 03:57:28;;;;;;;5.1;4.65;;;;;;;11.62;65.03223;95279.49;;;;
2022/08/13 03:58:29;;;;;;;5.1;4.65;;;;;;;11.62;65.03223;95279.49;;;;
2022/08/13 03:59:31;;;;;;;5.1;4.65;;;;;;;11.62;65.03223;95279.49;;;;
2022/08/13 04:00:31;;;;;;;5.1;4.65;;;;;;;11.62;65.03223;95279.49;;;;
2022/08/13 04:01:34;;;;;;;5.1;4.65;;;;;;;11.62;65.03223;95279.49;;;;
2022/08/13 04:02:40;;;;;;;5.1;4.65;;;;;;;11.62;65.03223;95279.49;;;;
2022/08/13 04:03:41;;;;;;;5.1;4.65;;;;;;;11.62;65.03223;95279.49;;;;
2022/08/13 04:04:46;;;;;;;5.1;4.65;;;;;;;11.62;65.03223;95279.49;;;;
2022/08/13 04:05:46;;;;;;;5.1;4.65;;;;;;;11.62;65.03223;95279.49;;;;
2022/08/13 04:06:48;;;;;;;4.349999;3.95;;;;;;;11.56;65.31445;95279.96;;;;
2022/08/13 04:07:50;;;;;;;4.349999;3.95;;;;;;;11.56;65.31445;95279.96;;;;
2022/08/13 04:08:52;;;;;;;4.349999;3.95;;;;;;;11.56;65.31445;95279.96;;;;
2022/08/13 04:09:54;;;;;;;4.349999;3.95;;;;;;;11.56;65.31445;95279.96;;;;
2022/08/13 04:10:55;;;;;;;4.349999;3.95;;;;;;;11.56;65.31445;95279.96;;;;
2022/08/13 04:11:56;;;;;;;4.349999;3.95;;;;;;;11.56;65.31445;95279.96;;;;
2022/08/13 04:12:56;;;;;;;4.349999;3.95;;;;;;;11.56;65.31445;95279.96;;;;
2022/08/13 04:13:57;;;;;;;4.349999;3.95;;;;;;;11.56;65.31445;95279.96;;;;
2022/08/13 04:14:57;;;;;;;4.349999;3.95;;;;;;;11.56;65.31445;95279.96;;;;
2022/08/13 04:15:57;;;;;;;4.349999;3.95;;;;;;;11.56;65.31445;95279.96;;;;
2022/08/13 04:16:58;;;;;;;4.349999;3.95;;;;;;;11.56;65.31445;95279.96;;;;
2022/08/13 04:17:58;;;;;;;4.95;4.45;;;;;;;11.41;65.50977;95275.37;;;;
2022/08/13 04:19:00;;;;;;;4.95;4.45;;;;;;;11.41;65.50977;95275.37;;;;
2022/08/13 04:20:02;;;;;;;4.95;4.45;;;;;;;11.41;65.50977;95275.37;;;;
2022/08/13 04:21:04;;;;;;;4.95;4.45;;;;;;;11.41;65.50977;95275.37;;;;
2022/08/13 04:22:06;;;;;;;4.95;4.45;;;;;;;11.41;65.50977;95275.37;;;;
2022/08/13 04:23:09;;;;;;;4.95;4.45;;;;;;;11.41;65.50977;95275.37;;;;
2022/08/13 04:24:18;;;;;;;4.95;4.45;;;;;;;11.41;65.50977;95275.37;;;;
2022/08/13 04:25:19;;;;;;;4.95;4.45;;;;;;;11.41;65.50977;95275.37;;;;
2022/08/13 04:26:23;;;;;;;4.95;4.45;;;;;;;11.41;65.50977;95275.37;;;;
2022/08/13 04:27:25;;;;;;;4.95;4.45;;;;;;;11.41;65.50977;95275.37;;;;
2022/08/13 04:28:26;;;;;;;6.350001;4.55;;;;;;;11.42;65.65137;95269.98;;;;
2022/08/13 04:29:26;;;;;;;6.350001;4.55;;;;;;;11.42;65.65137;95269.98;;;;
2022/08/13 04:30:27;;;;;;;6.350001;4.55;;;;;;;11.42;65.65137;95269.98;;;;
2022/08/13 04:31:28;;;;;;;6.350001;4.55;;;;;;;11.42;65.65137;95269.98;;;;
2022/08/13 04:32:28;;;;;;;6.350001;4.55;;;;;;;11.42;65.65137;95269.98;;;;
2022/08/13 04:33:29;;;;;;;6.350001;4.55;;;;;;;11.42;65.65137;95269.98;;;;
2022/08/13 04:34:30;;;;;;;6.350001;4.55;;;;;;;11.42;65.65137;95269.98;;;;
2022/08/13 04:35:30;;;;;;;6.350001;4.55;;;;;;;11.42;65.65137;95269.98;;;;
2022/08/13 04:36:31;;;;;;;6.350001;4.55;;;;;;;11.42;65.65137;95269.98;;;;
2022/08/13 04:37:31;;;;;;;6.350001;4.55;;;;;;;11.42;65.65137;95269.98;;;;
2022/08/13 04:38:33;;;;;;;5.2;4.7;;;;;;;11.5;65.65332;95263.09;;;;
2022/08/13 04:39:34;;;;;;;5.2;4.7;;;;;;;11.5;65.65332;95263.09;;;;
2022/08/13 04:40:35;;;;;;;5.2;4.7;;;;;;;11.5;65.65332;95263.09;;;;
2022/08/13 04:41:37;;;;;;;5.2;4.7;;;;;;;11.5;65.65332;95263.09;;;;
2022/08/13 04:42:37;;;;;;;5.2;4.7;;;;;;;11.5;65.65332;95263.09;;;;
2022/08/13 04:43:47;;;;;;;5.2;4.7;;;;;;;11.5;65.65332;95263.09;;;;
2022/08/13 04:44:48;;;;;;;5.2;4.7;;;;;;;11.5;65.65332;95263.09;;;;
2022/08/13 04:45:48;;;;;;;5.2;4.7;;;;;;;11.5;65.65332;95263.09;;;;
2022/08/13 04:46:49;;;;;;;5.2;4.7;;;;;;;11.5;65.65332;95263.09;;;;
2022/08/13 04:47:49;;;;;;;5.2;4.7;;;;;;;11.5;65.65332;95263.09;;;;
2022/08/13 04:48:50;;;;;;;5.2;4.7;;;;;;;11.5;65.65332;95263.09;;;;
2022/08/13 04:49:50;;;;;;;5.349999;4.05;;;;;;;11.82;65.5498;95276.95;;;;
2022/08/13 04:50:52;;;;;;;5.349999;4.05;;;;;;;11.82;65.5498;95276.95;;;;
2022/08/13 04:51:53;;;;;;;5.349999;4.05;;;;;;;11.82;65.5498;95276.95;;;;
2022/08/13 04:52:53;;;;;;;5.349999;4.05;;;;;;;11.82;65.5498;95276.95;;;;
2022/08/13 04:53:54;;;;;;;5.349999;4.05;;;;;;;11.82;65.5498;95276.95;;;;
2022/08/13 04:54:54;;;;;;;5.349999;4.05;;;;;;;11.82;65.5498;95276.95;;;;
2022/08/13 04:55:55;;;;;;;5.349999;4.05;;;;;;;11.82;65.5498;95276.95;;;;
2022/08/13 04:56:57;;;;;;;5.349999;4.05;;;;;;;11.82;65.5498;95276.95;;;;
2022/08/13 04:57:57;;;;;;;5.349999;4.05;;;;;;;11.82;65.5498;95276.95;;;;
2022/08/13 04:58:58;;;;;;;5.349999;4.05;;;;;;;11.82;65.5498;95276.95;;;;
2022/08/13 04:59:58;;;;;;;4.35;3.95;;;;;;;12.3;65.26367;95273.07;;;;
2022/08/13 05:00:59;;;;;;;4.35;3.95;;;;;;;12.3;65.26367;95273.07;;;;
2022/08/13 05:02:00;;;;;;;4.35;3.95;;;;;;;12.3;65.26367;95273.07;;;;
2022/08/13 05:03:00;;;;;;;4.35;3.95;;;;;;;12.3;65.26367;95273.07;;;;
2022/08/13 05:04:10;;;;;;;4.35;3.95;;;;;;;12.3;65.26367;95273.07;;;;
2022/08/13 05:05:11;;;;;;;4.35;3.95;;;;;;;12.3;65.26367;95273.07;;;;
2022/08/13 05:06:12;;;;;;;4.35;3.95;;;;;;;12.3;65.26367;95273.07;;;;
2022/08/13 05:07:15;;;;;;;4.35;3.95;;;;;;;12.3;65.26367;95273.07;;;;
2022/08/13 05:08:15;;;;;;;4.35;3.95;;;;;;;12.3;65.26367;95273.07;;;;
2022/08/13 05:09:16;;;;;;;4.35;3.95;;;;;;;12.3;65.26367;95273.07;;;;
2022/08/13 05:10:17;;;;;;;4.35;3.95;;;;;;;12.3;65.26367;95273.07;;;;
2022/08/13 05:11:19;;;;;;;4.450001;4.050001;;;;;;;12.79;65.04199;95249.06;;;;
2022/08/13 05:12:19;;;;;;;4.450001;4.050001;;;;;;;12.79;65.04199;95249.06;;;;
2022/08/13 05:13:20;;;;;;;4.450001;4.050001;;;;;;;12.79;65.04199;95249.06;;;;
2022/08/13 05:14:23;;;;;;;4.450001;4.050001;;;;;;;12.79;65.04199;95249.06;;;;
2022/08/13 05:15:24;;;;;;;4.450001;4.050001;;;;;;;12.79;65.04199;95249.06;;;;
2022/08/13 05:16:25;;;;;;;4.450001;4.050001;;;;;;;12.79;65.04199;95249.06;;;;
2022/08/13 05:17:26;;;;;;;4.450001;4.050001;;;;;;;12.79;65.04199;95249.06;;;;
2022/08/13 05:18:27;;;;;;;4.450001;4.050001;;;;;;;12.79;65.04199;95249.06;;;;
2022/08/13 05:19:30;;;;;;;4.450001;4.050001;;;;;;;12.79;65.04199;95249.06;;;;
2022/08/13 05:20:31;;;;;;;4.450001;4.050001;;;;;;;12.79;65.04199;95249.06;;;;
2022/08/13 05:21:32;;;;;;;4.65;4.15;;;;;;;13.04;65.01465;95243.5;;;;
2022/08/13 05:22:33;;;;;;;4.65;4.15;;;;;;;13.04;65.01465;95243.5;;;;
2022/08/13 05:23:34;;;;;;;4.65;4.15;;;;;;;13.04;65.01465;95243.5;;;;
2022/08/13 05:24:37;;;;;;;4.65;4.15;;;;;;;13.04;65.01465;95243.5;;;;
2022/08/13 05:25:38;;;;;;;4.65;4.15;;;;;;;13.04;65.01465;95243.5;;;;
2022/08/13 05:26:38;;;;;;;4.65;4.15;;;;;;;13.04;65.01465;95243.5;;;;
2022/08/13 05:27:39;;;;;;;4.65;4.15;;;;;;;13.04;65.01465;95243.5;;;;
2022/08/13 05:28:41;;;;;;;4.65;4.15;;;;;;;13.04;65.01465;95243.5;;;;
2022/08/13 05:29:41;;;;;;;4.65;4.15;;;;;;;13.04;65.01465;95243.5;;;;
2022/08/13 05:30:43;;;;;;;4.65;4.15;;;;;;;13.04;65.01465;95243.5;;;;
2022/08/13 05:31:45;;;;;;;4.65;4.15;;;;;;;13.04;65.01465;95243.5;;;;
2022/08/13 05:32:46;;;;;;;6.85;4.05;;;;;;;13.38;65.00098;95236.61;;;;
2022/08/13 05:33:46;;;;;;;6.85;4.05;;;;;;;13.38;65.00098;95236.61;;;;
2022/08/13 05:34:48;;;;;;;6.85;4.05;;;;;;;13.38;65.00098;95236.61;;;;
2022/08/13 05:35:48;;;;;;;6.85;4.05;;;;;;;13.38;65.00098;95236.61;;;;
2022/08/13 05:36:52;;;;;;;6.85;4.05;;;;;;;13.38;65.00098;95236.61;;;;
2022/08/13 05:37:53;;;;;;;6.85;4.05;;;;;;;13.38;65.00098;95236.61;;;;
2022/08/13 05:38:54;;;;;;;6.85;4.05;;;;;;;13.38;65.00098;95236.61;;;;
2022/08/13 05:39:55;;;;;;;6.85;4.05;;;;;;;13.38;65.00098;95236.61;;;;
2022/08/13 05:40:56;;;;;;;6.85;4.05;;;;;;;13.38;65.00098;95236.61;;;;
2022/08/13 05:41:59;;;;;;;6.85;4.05;;;;;;;13.38;65.00098;95236.61;;;;
2022/08/13 05:43:00;;;;;;;4.15;3.85;;;;;;;13.69;64.8623;95242;;;;
2022/08/13 05:44:00;;;;;;;4.15;3.85;;;;;;;13.69;64.8623;95242;;;;
2022/08/13 05:45:01;;;;;;;4.15;3.85;;;;;;;13.69;64.8623;95242;;;;
2022/08/13 05:46:02;;;;;;;4.15;3.85;;;;;;;13.69;64.8623;95242;;;;
2022/08/13 05:47:05;;;;;;;4.15;3.85;;;;;;;13.69;64.8623;95242;;;;
2022/08/13 05:48:06;;;;;;;4.15;3.85;;;;;;;13.69;64.8623;95242;;;;
2022/08/13 05:49:06;;;;;;;4.15;3.85;;;;;;;13.69;64.8623;95242;;;;
2022/08/13 05:50:13;;;;;;;4.15;3.85;;;;;;;13.69;64.8623;95242;;;;
2022/08/13 05:51:13;;;;;;;4.15;3.85;;;;;;;13.69;64.8623;95242;;;;
2022/08/13 05:52:14;;;;;;;4.15;3.85;;;;;;;13.69;64.8623;95242;;;;
2022/08/13 05:53:16;;;;;;;4.05;3.7;;;;;;;14.1;64.77051;95244.87;;;;
2022/08/13 05:54:19;;;;;;;4.05;3.7;;;;;;;14.1;64.77051;95244.87;;;;
2022/08/13 05:55:20;;;;;;;4.05;3.7;;;;;;;14.1;64.77051;95244.87;;;;